Time;durP1;ratioP1;P1;durP2;ratioP2;P2;SDS_P1;SDS_P2;PMS_P1;PMS_P2;Temp;Humidity;BMP_temperature;BMP_pressure;BME280_temperature;BME280_humidity;BME280_pressure;Samples;Min_cycle;Max_cycle;Signal;HPM_P1;HPM_P2
2022/10/16 00:00:42;;;;;;;53.17;29.85;;;16.00;99.90;;;;;;5001211;28;20026;-74
2022/10/16 00:03:09;;;;;;;48.35;29.10;;;16.10;99.90;;;;;;4996099;28;20034;-73
2022/10/16 00:05:42;;;;;;;51.10;28.00;;;16.10;99.90;;;;;;4992005;28;20041;-74
2022/10/16 00:08:08;;;;;;;54.58;29.02;;;16.10;99.90;;;;;;4990844;28;20040;-74
2022/10/16 00:10:35;;;;;;;49.28;27.58;;;16.00;99.90;;;;;;4997548;28;20031;-74
2022/10/16 00:13:00;;;;;;;49.72;28.63;;;15.90;99.90;;;;;;4994861;28;20550;-73
2022/10/16 00:15:26;;;;;;;53.65;31.30;;;15.90;99.90;;;;;;4992532;28;20154;-75
2022/10/16 00:17:52;;;;;;;51.15;28.27;;;15.80;99.90;;;;;;4991863;28;20034;-74
2022/10/16 00:20:17;;;;;;;52.05;31.77;;;15.70;99.90;;;;;;4991887;28;20054;-73
2022/10/16 00:22:43;;;;;;;52.17;28.83;;;15.70;99.90;;;;;;4990085;28;20447;-74
2022/10/16 00:25:09;;;;;;;50.92;29.27;;;15.70;99.90;;;;;;4993334;28;20429;-74
2022/10/16 00:27:34;;;;;;;47.63;27.13;;;15.60;99.90;;;;;;4997699;28;20429;-74
2022/10/16 00:30:00;;;;;;;49.25;28.95;;;15.60;99.90;;;;;;4992457;28;20034;-73
2022/10/16 00:32:26;;;;;;;48.33;28.40;;;15.70;99.90;;;;;;4995308;28;21481;-74
2022/10/16 00:34:54;;;;;;;49.67;29.70;;;15.70;99.90;;;;;;5001820;28;20104;-75
2022/10/16 00:37:20;;;;;;;55.28;31.67;;;15.70;99.90;;;;;;4990947;28;20057;-74
2022/10/16 00:39:46;;;;;;;49.70;28.25;;;15.70;99.90;;;;;;4995022;28;20465;-74
2022/10/16 00:42:18;;;;;;;54.42;29.30;;;15.70;99.90;;;;;;4989854;28;20500;-74
2022/10/16 00:44:53;;;;;;;52.03;31.90;;;15.80;99.90;;;;;;4998227;28;20053;-74
2022/10/16 00:47:32;;;;;;;48.38;28.40;;;15.90;99.90;;;;;;4992099;28;20034;-74
2022/10/16 00:50:21;;;;;;;52.83;30.23;;;15.80;99.90;;;;;;4998658;28;20053;-74
2022/10/16 00:52:49;;;;;;;49.92;28.33;;;15.70;99.90;;;;;;4996231;28;20080;-74
2022/10/16 00:55:16;;;;;;;53.22;27.85;;;15.70;99.90;;;;;;4990776;28;20481;-74
2022/10/16 00:57:43;;;;;;;56.40;31.52;;;15.70;99.90;;;;;;4988559;28;20568;-75
2022/10/16 01:00:11;;;;;;;53.05;29.38;;;15.80;99.90;;;;;;4989234;28;20461;-74
2022/10/16 01:02:37;;;;;;;55.90;30.75;;;15.80;99.90;;;;;;4997890;28;20033;-74
2022/10/16 01:05:04;;;;;;;49.50;30.58;;;15.80;99.90;;;;;;4998633;28;20497;-75
2022/10/16 01:07:30;;;;;;;50.65;27.85;;;15.80;99.90;;;;;;4992684;28;20576;-74
2022/10/16 01:10:20;;;;;;;48.38;29.38;;;15.80;99.90;;;;;;4996411;28;20120;-74
2022/10/16 01:13:07;;;;;;;56.42;29.80;;;15.80;99.90;;;;;;4992417;28;20033;-73
2022/10/16 01:15:47;;;;;;;57.28;28.63;;;15.80;99.90;;;;;;4993952;28;20085;-74
2022/10/16 01:18:39;;;;;;;56.50;28.98;;;15.80;99.90;;;;;;4993953;28;20484;-74
2022/10/16 01:21:08;;;;;;;52.33;29.30;;;15.80;99.90;;;;;;4993177;28;20414;-74
2022/10/16 01:24:18;;;;;;;52.60;29.17;;;15.90;99.90;;;;;;4994687;28;20084;-74
2022/10/16 01:26:58;;;;;;;49.65;29.70;;;15.80;99.90;;;;;;5018727;28;20045;-74
2022/10/16 01:29:38;;;;;;;49.42;30.50;;;15.80;99.90;;;;;;4988734;28;20038;-74
2022/10/16 01:32:38;;;;;;;74.40;35.67;;;15.90;99.90;;;;;;4990991;28;20027;-74
2022/10/16 01:35:07;;;;;;;59.05;34.20;;;15.90;99.90;;;;;;4988514;28;20046;-73
2022/10/16 01:37:49;;;;;;;64.55;34.88;;;15.80;99.90;;;;;;4997563;28;20041;-75
2022/10/16 01:40:19;;;;;;;75.80;40.13;;;15.80;99.90;;;;;;4994524;28;20032;-74
2022/10/16 01:42:53;;;;;;;61.88;37.00;;;15.90;99.90;;;;;;4987430;28;20034;-75
2022/10/16 01:45:20;;;;;;;58.88;33.78;;;15.90;99.90;;;;;;4994676;28;20038;-74
2022/10/16 01:47:47;;;;;;;55.10;31.65;;;15.80;99.90;;;;;;4998272;28;20400;-73
2022/10/16 01:50:15;;;;;;;50.10;27.75;;;15.80;99.90;;;;;;4996710;28;20841;-74
2022/10/16 01:52:45;;;;;;;48.55;28.88;;;15.90;99.90;;;;;;4992772;28;20030;-73
2022/10/16 01:55:14;;;;;;;50.05;26.95;;;15.90;99.90;;;;;;4989664;28;20032;-74
2022/10/16 01:57:46;;;;;;;50.08;28.55;;;15.90;99.90;;;;;;4989239;28;20042;-74
2022/10/16 02:00:14;;;;;;;52.63;29.08;;;15.80;99.90;;;;;;4995234;28;20033;-74
2022/10/16 02:02:42;;;;;;;46.75;26.10;;;15.80;99.90;;;;;;4993455;28;20034;-74
2022/10/16 02:05:18;;;;;;;52.17;30.05;;;15.70;99.90;;;;;;4989732;28;20030;-74
2022/10/16 02:07:44;;;;;;;53.08;29.67;;;15.80;99.90;;;;;;4993741;28;20109;-74
2022/10/16 02:10:10;;;;;;;54.85;31.00;;;15.80;99.90;;;;;;4994756;28;20105;-73
2022/10/16 02:12:39;;;;;;;59.70;31.23;;;15.80;99.90;;;;;;4996796;28;20373;-75
2022/10/16 02:15:06;;;;;;;52.50;30.63;;;15.90;99.90;;;;;;4994353;28;20526;-74
2022/10/16 02:17:32;;;;;;;55.45;32.00;;;16.00;99.90;;;;;;4994608;28;20211;-74
2022/10/16 02:19:59;;;;;;;58.38;34.10;;;16.10;99.90;;;;;;4993394;28;20121;-74
2022/10/16 02:22:33;;;;;;;61.08;31.13;;;16.10;99.90;;;;;;4998513;28;20026;-75
2022/10/16 02:25:06;;;;;;;53.45;31.13;;;16.00;99.90;;;;;;5009321;28;20546;-74
2022/10/16 02:27:51;;;;;;;56.67;30.63;;;16.10;99.90;;;;;;4996806;28;20030;-73
2022/10/16 02:30:23;;;;;;;57.08;33.05;;;16.10;99.90;;;;;;4992524;28;20034;-74
2022/10/16 02:32:50;;;;;;;49.80;28.35;;;16.00;99.90;;;;;;4992822;28;20065;-75
2022/10/16 02:35:18;;;;;;;50.63;28.90;;;15.90;99.90;;;;;;4993912;28;20507;-75
2022/10/16 02:37:46;;;;;;;50.80;29.30;;;15.90;99.90;;;;;;4988911;28;20485;-74
2022/10/16 02:40:13;;;;;;;54.97;32.85;;;15.80;99.90;;;;;;4995932;28;20037;-73
2022/10/16 02:42:40;;;;;;;64.47;33.42;;;15.80;99.90;;;;;;4994187;28;20030;-74
2022/10/16 02:45:07;;;;;;;57.55;30.88;;;15.80;99.90;;;;;;4993212;28;20030;-74
2022/10/16 02:47:33;;;;;;;58.03;31.92;;;15.80;99.90;;;;;;4990266;28;20057;-74
2022/10/16 02:49:59;;;;;;;62.72;34.40;;;15.80;99.90;;;;;;4995171;28;20477;-74
2022/10/16 02:52:25;;;;;;;68.05;37.47;;;15.80;99.90;;;;;;4991390;28;20026;-73
2022/10/16 02:54:51;;;;;;;64.93;32.97;;;15.80;99.90;;;;;;4992202;28;20034;-74
2022/10/16 02:57:17;;;;;;;59.25;31.02;;;15.80;99.90;;;;;;4996195;28;20085;-73
2022/10/16 02:59:43;;;;;;;47.28;27.20;;;15.80;99.90;;;;;;4991576;28;20341;-74
2022/10/16 03:02:09;;;;;;;46.40;26.23;;;15.60;99.90;;;;;;4999917;28;20030;-74
2022/10/16 03:04:35;;;;;;;48.47;25.75;;;15.40;99.90;;;;;;4995443;28;20041;-73
2022/10/16 03:07:00;;;;;;;49.55;27.50;;;15.30;99.90;;;;;;4993328;28;20041;-74
2022/10/16 03:09:26;;;;;;;54.50;28.85;;;15.10;99.90;;;;;;4992981;28;20117;-75
2022/10/16 03:11:52;;;;;;;47.80;26.88;;;15.20;99.90;;;;;;4990144;28;20030;-74
2022/10/16 03:14:17;;;;;;;47.30;27.25;;;15.10;99.90;;;;;;4994208;28;20052;-74
2022/10/16 03:16:43;;;;;;;49.97;27.98;;;15.10;99.90;;;;;;4996828;28;20034;-74
2022/10/16 03:19:09;;;;;;;54.83;30.20;;;15.00;99.90;;;;;;4984031;28;20481;-74
2022/10/16 03:21:34;;;;;;;49.67;29.10;;;15.00;99.90;;;;;;4991608;28;20026;-74
2022/10/16 03:24:00;;;;;;;45.65;24.50;;;15.00;99.90;;;;;;4985648;28;20342;-74
2022/10/16 03:26:26;;;;;;;49.03;27.05;;;15.10;99.90;;;;;;4988954;28;20109;-74
2022/10/16 03:28:51;;;;;;;58.63;29.65;;;15.00;99.90;;;;;;4989420;28;20074;-74
2022/10/16 03:31:17;;;;;;;51.03;27.83;;;15.00;99.90;;;;;;4983932;28;20456;-74
2022/10/16 03:33:42;;;;;;;48.78;28.95;;;14.90;99.90;;;;;;4996113;28;20092;-73
2022/10/16 03:36:08;;;;;;;48.30;28.27;;;15.00;99.90;;;;;;4993191;28;20022;-74
2022/10/16 03:38:34;;;;;;;49.72;28.40;;;15.00;99.90;;;;;;4991999;28;20045;-72
2022/10/16 03:40:59;;;;;;;57.28;29.58;;;15.00;99.90;;;;;;4988485;28;20031;-74
2022/10/16 03:43:25;;;;;;;51.88;28.70;;;15.00;99.90;;;;;;4990137;28;20504;-73
2022/10/16 03:45:51;;;;;;;49.78;27.98;;;15.00;99.90;;;;;;4991400;28;20058;-73
2022/10/16 03:48:18;;;;;;;48.47;27.92;;;15.00;99.90;;;;;;4992520;28;20026;-74
2022/10/16 03:50:43;;;;;;;50.53;29.10;;;15.00;99.90;;;;;;4998134;28;20559;-73
2022/10/16 03:53:09;;;;;;;54.63;29.63;;;15.00;99.90;;;;;;4992532;28;20030;-74
2022/10/16 03:55:35;;;;;;;50.40;27.90;;;15.00;99.90;;;;;;4993182;28;20037;-73
2022/10/16 03:58:01;;;;;;;50.22;28.48;;;15.00;99.90;;;;;;4994552;28;20432;-74
2022/10/16 04:00:27;;;;;;;54.58;28.88;;;15.00;99.90;;;;;;4989780;28;20053;-73
2022/10/16 04:02:52;;;;;;;47.13;26.83;;;15.00;99.90;;;;;;4988561;28;20103;-74
2022/10/16 04:05:18;;;;;;;53.03;27.65;;;15.00;99.90;;;;;;4987605;28;20040;-73
2022/10/16 04:07:44;;;;;;;51.92;28.73;;;14.90;99.90;;;;;;4992115;28;20108;-74
2022/10/16 04:10:10;;;;;;;50.95;27.25;;;14.90;99.90;;;;;;4989266;28;20034;-74
2022/10/16 04:12:35;;;;;;;47.90;26.75;;;15.00;99.90;;;;;;4989016;28;20416;-74
2022/10/16 04:15:01;;;;;;;51.28;29.00;;;14.90;99.90;;;;;;4988417;28;20054;-74
2022/10/16 04:17:27;;;;;;;57.63;30.27;;;14.80;99.90;;;;;;4986941;28;20037;-74
2022/10/16 04:19:53;;;;;;;55.15;30.60;;;14.90;99.90;;;;;;4991387;28;20388;-74
2022/10/16 04:22:18;;;;;;;59.20;32.00;;;14.90;99.90;;;;;;4986478;28;20327;-74
2022/10/16 04:24:44;;;;;;;52.60;30.05;;;14.90;99.90;;;;;;4987867;28;20030;-74
2022/10/16 04:27:09;;;;;;;57.38;32.20;;;14.80;99.90;;;;;;4988236;28;20045;-75
2022/10/16 04:29:35;;;;;;;63.97;30.98;;;14.90;99.90;;;;;;4984946;28;20402;-73
2022/10/16 04:32:01;;;;;;;48.60;27.33;;;14.90;99.90;;;;;;4989095;28;20138;-75
2022/10/16 04:34:26;;;;;;;52.67;27.52;;;14.80;99.90;;;;;;4989530;28;20026;-74
2022/10/16 04:36:52;;;;;;;52.13;29.40;;;14.70;99.90;;;;;;4980833;28;20475;-74
2022/10/16 04:39:18;;;;;;;53.47;29.40;;;14.60;99.90;;;;;;4984984;28;20030;-74
2022/10/16 04:41:43;;;;;;;48.92;28.13;;;14.70;99.90;;;;;;4984729;28;20458;-74
2022/10/16 04:44:09;;;;;;;47.70;27.95;;;14.70;99.90;;;;;;4986110;28;20088;-75
2022/10/16 04:46:35;;;;;;;49.40;27.67;;;14.70;99.90;;;;;;4986042;28;20092;-74
2022/10/16 04:49:00;;;;;;;49.85;27.27;;;14.80;99.90;;;;;;4981821;28;20511;-74
2022/10/16 04:51:27;;;;;;;51.83;29.50;;;14.70;99.90;;;;;;4985322;28;20057;-73
2022/10/16 04:53:54;;;;;;;55.00;28.08;;;14.70;99.90;;;;;;4987355;28;20035;-74
2022/10/16 04:56:20;;;;;;;54.92;31.38;;;14.70;99.90;;;;;;4985911;28;20490;-74
2022/10/16 04:58:46;;;;;;;60.17;30.92;;;14.70;99.90;;;;;;4989091;28;20125;-74
2022/10/16 05:01:12;;;;;;;55.65;29.33;;;14.90;99.90;;;;;;4985023;28;20121;-74
2022/10/16 05:03:38;;;;;;;55.60;30.95;;;15.00;99.90;;;;;;4986427;28;20066;-73
2022/10/16 05:06:05;;;;;;;53.33;29.05;;;14.90;99.90;;;;;;4987347;28;20768;-74
2022/10/16 05:08:31;;;;;;;56.03;28.92;;;14.90;99.90;;;;;;4986741;28;20029;-74
2022/10/16 05:10:56;;;;;;;72.72;38.25;;;15.00;99.90;;;;;;4989256;28;20037;-75
2022/10/16 05:13:23;;;;;;;58.78;31.05;;;15.20;99.90;;;;;;4991463;28;20096;-73
2022/10/16 05:15:49;;;;;;;63.97;31.92;;;15.20;99.90;;;;;;4987861;28;20480;-74
2022/10/16 05:18:15;;;;;;;58.60;32.78;;;15.10;99.90;;;;;;4982579;28;20065;-74
2022/10/16 05:20:42;;;;;;;56.72;31.33;;;15.00;99.90;;;;;;4990448;28;20038;-74
2022/10/16 05:23:09;;;;;;;57.17;31.75;;;15.00;99.90;;;;;;4981545;28;20030;-73
2022/10/16 05:25:36;;;;;;;52.97;30.52;;;15.10;99.90;;;;;;4982705;28;20046;-74
2022/10/16 05:28:02;;;;;;;61.10;32.58;;;15.20;99.90;;;;;;4990508;28;20042;-75
2022/10/16 05:30:27;;;;;;;58.38;32.97;;;15.30;99.90;;;;;;4981057;28;20045;-73
2022/10/16 05:32:53;;;;;;;60.42;32.65;;;15.30;99.90;;;;;;4982436;28;20030;-75
2022/10/16 05:35:19;;;;;;;61.72;31.88;;;15.30;99.90;;;;;;4984516;28;20138;-73
2022/10/16 05:37:46;;;;;;;66.72;34.60;;;15.30;99.90;;;;;;4988054;28;20030;-73
2022/10/16 05:40:12;;;;;;;67.60;35.85;;;15.30;99.90;;;;;;4984043;28;20034;-74
2022/10/16 05:42:38;;;;;;;62.00;34.85;;;15.30;99.90;;;;;;4980044;28;20045;-73
2022/10/16 05:45:06;;;;;;;60.22;33.45;;;15.30;99.90;;;;;;4995152;28;20027;-74
2022/10/16 05:47:32;;;;;;;65.72;36.75;;;15.30;99.90;;;;;;4989438;28;20034;-75
2022/10/16 05:49:57;;;;;;;63.58;35.40;;;15.30;99.90;;;;;;4983179;28;20044;-74
2022/10/16 05:52:23;;;;;;;59.83;34.13;;;15.30;99.90;;;;;;4984792;28;20164;-74
2022/10/16 05:54:49;;;;;;;72.38;37.85;;;15.30;99.90;;;;;;4987171;28;20108;-73
2022/10/16 05:57:15;;;;;;;63.35;35.28;;;15.30;99.90;;;;;;4984113;28;20172;-74
2022/10/16 05:59:40;;;;;;;75.32;41.17;;;15.20;99.90;;;;;;4987159;28;20113;-75
2022/10/16 06:02:12;;;;;;;68.25;37.67;;;15.10;99.90;;;;;;4985258;28;20034;-74
2022/10/16 06:04:37;;;;;;;71.72;38.97;;;15.10;99.90;;;;;;4986716;28;20064;-74
2022/10/16 06:07:03;;;;;;;67.65;39.88;;;15.20;99.90;;;;;;4985582;28;20125;-74
2022/10/16 06:09:29;;;;;;;80.22;40.22;;;15.20;99.90;;;;;;4983767;28;20325;-73
2022/10/16 06:11:54;;;;;;;68.18;37.47;;;15.20;99.90;;;;;;4984747;28;20041;-75
2022/10/16 06:14:20;;;;;;;65.55;38.28;;;15.20;99.90;;;;;;4985351;28;20113;-74
2022/10/16 06:16:45;;;;;;;68.05;38.60;;;15.20;99.90;;;;;;4987552;28;20030;-77
2022/10/16 06:19:11;;;;;;;67.97;38.50;;;15.20;99.90;;;;;;4987623;28;20026;-77
2022/10/16 06:21:37;;;;;;;67.88;37.90;;;15.10;99.90;;;;;;4985682;28;20038;-76
2022/10/16 06:24:03;;;;;;;71.25;37.45;;;15.10;99.90;;;;;;5001184;28;20408;-76
2022/10/16 06:26:30;;;;;;;67.50;36.97;;;15.10;99.90;;;;;;4996316;28;20038;-76
2022/10/16 06:28:57;;;;;;;63.95;36.75;;;15.10;99.90;;;;;;4987464;28;20037;-76
2022/10/16 06:31:27;;;;;;;70.38;39.10;;;15.10;99.90;;;;;;5001101;28;20045;-74
2022/10/16 06:33:53;;;;;;;65.65;40.00;;;15.10;99.90;;;;;;4997312;28;20113;-76
2022/10/16 06:36:20;;;;;;;73.22;40.15;;;15.10;99.90;;;;;;4995421;28;20043;-76
2022/10/16 06:38:46;;;;;;;67.10;40.38;;;15.20;99.90;;;;;;4985465;28;20026;-77
2022/10/16 06:41:14;;;;;;;65.28;36.42;;;15.30;99.90;;;;;;4992778;28;20042;-76
2022/10/16 06:43:40;;;;;;;70.93;39.05;;;15.40;99.90;;;;;;4987437;28;20034;-77
2022/10/16 06:46:07;;;;;;;72.05;39.47;;;15.40;99.90;;;;;;4990432;28;20040;-76
2022/10/16 06:48:33;;;;;;;64.88;34.20;;;15.40;99.90;;;;;;4990707;28;20038;-75
2022/10/16 06:51:08;;;;;;;64.40;35.42;;;15.50;99.90;;;;;;4989635;28;20041;-75
2022/10/16 06:53:35;;;;;;;60.95;35.03;;;15.50;99.90;;;;;;4993868;28;20073;-79
2022/10/16 06:56:14;;;;;;;68.55;39.80;;;15.50;99.90;;;;;;4995542;28;20120;-77
2022/10/16 06:58:41;;;;;;;65.90;35.00;;;15.60;99.90;;;;;;4992354;28;20541;-76
2022/10/16 07:01:08;;;;;;;65.38;35.00;;;15.70;99.90;;;;;;4986485;28;20096;-76
2022/10/16 07:03:37;;;;;;;57.83;33.58;;;15.70;99.90;;;;;;4984536;28;20031;-79
2022/10/16 07:06:04;;;;;;;65.38;36.47;;;15.80;99.90;;;;;;4984002;28;20030;-76
2022/10/16 07:08:37;;;;;;;60.00;31.73;;;15.80;99.90;;;;;;4985354;28;20052;-76
2022/10/16 07:11:06;;;;;;;56.72;33.20;;;15.90;99.90;;;;;;4985718;28;20034;-76
2022/10/16 07:13:35;;;;;;;57.15;34.13;;;15.90;99.90;;;;;;4982685;28;20057;-76
2022/10/16 07:16:09;;;;;;;56.75;33.17;;;15.90;99.90;;;;;;4988098;28;20046;-76
2022/10/16 07:18:36;;;;;;;56.28;33.53;;;15.90;99.90;;;;;;4985283;28;20034;-77
2022/10/16 07:21:11;;;;;;;53.65;33.30;;;16.00;99.90;;;;;;4994134;28;20040;-75
2022/10/16 07:23:37;;;;;;;60.60;35.35;;;16.10;99.90;;;;;;4990450;28;20031;-77
2022/10/16 07:26:04;;;;;;;59.65;33.83;;;16.20;99.90;;;;;;5000717;28;20030;-76
2022/10/16 07:28:31;;;;;;;55.08;32.25;;;16.30;99.90;;;;;;4997902;28;20067;-77
2022/10/16 07:31:04;;;;;;;57.88;35.40;;;16.40;99.90;;;;;;4995696;28;20050;-76
2022/10/16 07:33:31;;;;;;;56.85;34.47;;;16.40;99.90;;;;;;4988198;28;20065;-77
2022/10/16 07:35:56;;;;;;;57.45;33.47;;;16.30;99.90;;;;;;4999304;28;20040;-76
2022/10/16 07:38:23;;;;;;;54.17;31.35;;;16.30;99.90;;;;;;4990237;28;20453;-76
2022/10/16 07:40:55;;;;;;;68.68;35.00;;;16.30;99.90;;;;;;5003503;28;20034;-76
2022/10/16 07:43:21;;;;;;;57.63;33.33;;;16.30;99.90;;;;;;4988357;28;20026;-76
2022/10/16 07:45:50;;;;;;;55.70;34.15;;;16.30;99.90;;;;;;4993504;28;20037;-76
2022/10/16 07:48:17;;;;;;;67.15;38.97;;;16.40;99.90;;;;;;4992668;28;20034;-77
2022/10/16 07:50:43;;;;;;;61.80;36.78;;;16.40;99.90;;;;;;4985804;28;20038;-78
2022/10/16 07:53:09;;;;;;;61.50;36.08;;;16.40;99.90;;;;;;4993928;28;20076;-78
2022/10/16 07:55:35;;;;;;;62.85;35.35;;;16.50;99.90;;;;;;5001857;28;20084;-76
2022/10/16 07:58:01;;;;;;;60.33;35.50;;;16.60;99.90;;;;;;5001612;28;20022;-76
2022/10/16 08:00:26;;;;;;;60.53;34.80;;;16.70;99.90;;;;;;4998852;28;20098;-76
2022/10/16 08:02:52;;;;;;;58.08;34.22;;;16.70;99.90;;;;;;4998615;28;20061;-77
2022/10/16 08:05:18;;;;;;;60.03;35.67;;;16.80;99.90;;;;;;4994484;28;20282;-76
2022/10/16 08:07:49;;;;;;;63.08;36.50;;;16.80;99.90;;;;;;4986065;28;20092;-77
2022/10/16 08:10:19;;;;;;;60.88;34.58;;;17.00;99.90;;;;;;4991256;28;20088;-78
2022/10/16 08:12:45;;;;;;;60.75;36.65;;;17.00;99.90;;;;;;4993436;28;20507;-77
2022/10/16 08:15:11;;;;;;;59.15;35.08;;;17.00;99.90;;;;;;4985147;28;20046;-76
2022/10/16 08:17:37;;;;;;;57.33;33.42;;;17.00;99.90;;;;;;4996879;28;20030;-76
2022/10/16 08:20:03;;;;;;;62.63;35.33;;;16.90;99.90;;;;;;5003407;28;20108;-75
2022/10/16 08:22:28;;;;;;;57.15;33.67;;;16.90;99.90;;;;;;4987798;28;20178;-74
2022/10/16 08:24:54;;;;;;;58.05;34.63;;;16.90;99.90;;;;;;4980373;28;20029;-75
2022/10/16 08:27:20;;;;;;;56.63;35.10;;;16.90;99.90;;;;;;4993440;28;20592;-74
2022/10/16 08:29:45;;;;;;;58.25;37.00;;;16.90;99.90;;;;;;4990386;28;20964;-75
2022/10/16 08:32:11;;;;;;;57.88;36.00;;;17.00;99.90;;;;;;4989823;28;20037;-74
2022/10/16 08:34:37;;;;;;;56.90;34.35;;;17.00;99.90;;;;;;4994516;28;20480;-74
2022/10/16 08:37:02;;;;;;;58.60;36.53;;;17.20;99.90;;;;;;4991161;28;20030;-75
2022/10/16 08:39:28;;;;;;;58.97;36.70;;;17.20;99.90;;;;;;4991470;28;20401;-74
2022/10/16 08:42:21;;;;;;;58.03;36.28;;;17.20;99.90;;;;;;4984303;28;20037;-75
2022/10/16 08:44:56;;;;;;;60.88;37.15;;;17.20;99.90;;;;;;4991530;28;20033;-74
2022/10/16 08:47:45;;;;;;;58.05;34.72;;;17.30;99.90;;;;;;4994239;28;20060;-75
2022/10/16 08:50:27;;;;;;;55.70;34.40;;;17.40;99.90;;;;;;4994191;28;20035;-74
2022/10/16 08:52:55;;;;;;;60.88;34.65;;;17.30;99.90;;;;;;4984428;28;20141;-75
2022/10/16 08:55:42;;;;;;;59.08;33.83;;;17.40;99.90;;;;;;4990201;28;20026;-74
2022/10/16 08:58:18;;;;;;;62.88;34.55;;;17.50;99.90;;;;;;4988554;28;20037;-75
2022/10/16 09:00:49;;;;;;;53.55;33.58;;;17.50;99.90;;;;;;4984476;28;20037;-75
2022/10/16 09:03:28;;;;;;;57.95;34.45;;;17.50;99.90;;;;;;4992761;28;20037;-74
2022/10/16 09:06:21;;;;;;;62.15;35.10;;;17.50;99.90;;;;;;4985656;28;20026;-75
2022/10/16 09:09:29;;;;;;;54.65;34.70;;;17.60;99.90;;;;;;4989058;28;20030;-72
2022/10/16 09:12:10;;;;;;;58.55;32.85;;;17.70;99.90;;;;;;4984398;28;20050;-75
2022/10/16 09:14:47;;;;;;;53.40;32.63;;;17.70;99.90;;;;;;4987258;28;20602;-73
2022/10/16 09:17:44;;;;;;;59.55;36.60;;;17.90;99.90;;;;;;4991352;28;20045;-73
2022/10/16 09:20:27;;;;;;;59.25;36.45;;;17.90;99.90;;;;;;4991255;28;20936;-73
2022/10/16 09:23:03;;;;;;;59.10;34.22;;;17.90;99.90;;;;;;4989734;28;20037;-73
2022/10/16 09:25:28;;;;;;;58.10;34.25;;;17.90;99.90;;;;;;4992521;28;20673;-73
2022/10/16 09:27:55;;;;;;;61.00;33.33;;;17.90;99.90;;;;;;4995355;28;20041;-73
2022/10/16 09:30:21;;;;;;;55.22;32.00;;;17.90;99.90;;;;;;4994277;28;20036;-72
2022/10/16 09:32:51;;;;;;;51.47;32.22;;;17.80;99.90;;;;;;4993833;28;20030;-74
2022/10/16 09:35:22;;;;;;;56.55;32.03;;;17.90;99.90;;;;;;4990972;28;20034;-74
2022/10/16 09:37:51;;;;;;;56.92;32.47;;;17.80;99.90;;;;;;4994249;28;20025;-73
2022/10/16 09:40:32;;;;;;;61.90;35.92;;;17.90;99.90;;;;;;4991073;28;20098;-73
2022/10/16 09:43:17;;;;;;;58.33;34.72;;;17.90;99.90;;;;;;4989708;28;20561;-73
2022/10/16 09:45:52;;;;;;;56.75;34.75;;;17.90;99.90;;;;;;4987835;28;20037;-74
2022/10/16 09:48:20;;;;;;;55.58;34.55;;;17.90;99.90;;;;;;4990083;28;20042;-75
2022/10/16 09:51:00;;;;;;;51.30;31.38;;;18.10;99.90;;;;;;4991746;28;20026;-72
2022/10/16 09:53:40;;;;;;;60.40;35.05;;;18.30;99.90;;;;;;4985582;28;20093;-73
2022/10/16 09:56:06;;;;;;;54.53;34.40;;;18.30;99.90;;;;;;4992196;28;20030;-72
2022/10/16 09:58:33;;;;;;;57.40;34.05;;;18.30;99.90;;;;;;4990735;28;20564;-72
2022/10/16 10:00:59;;;;;;;62.63;35.92;;;18.40;99.90;;;;;;4998408;28;20076;-72
2022/10/16 10:03:36;;;;;;;59.50;35.28;;;18.30;99.90;;;;;;4988454;28;20027;-72
2022/10/16 10:06:27;;;;;;;58.28;34.47;;;18.50;99.90;;;;;;4994715;28;20057;-73
2022/10/16 10:09:17;;;;;;;57.00;33.35;;;18.50;99.90;;;;;;4996257;28;20521;-72
2022/10/16 10:12:01;;;;;;;60.40;34.97;;;18.70;99.90;;;;;;4993689;28;20022;-73
2022/10/16 10:14:46;;;;;;;57.75;35.70;;;18.60;99.90;;;;;;4992938;28;20042;-74
2022/10/16 10:17:14;;;;;;;;;;;18.70;99.90;;;;;;4995020;28;20053;-73
2022/10/16 10:19:50;;;;;;;57.55;34.03;;;18.70;99.90;;;;;;4997138;28;19968;-73
2022/10/16 10:22:38;;;;;;;59.00;34.13;;;18.80;99.90;;;;;;4987432;28;20022;-72
2022/10/16 10:25:13;;;;;;;56.45;32.90;;;19.10;99.90;;;;;;4990268;28;20057;-72
2022/10/16 10:28:03;;;;;;;58.75;35.05;;;18.90;99.90;;;;;;4985686;28;20088;-73
2022/10/16 10:30:37;;;;;;;57.75;34.42;;;19.00;99.90;;;;;;4992322;28;20891;-72
2022/10/16 10:33:17;;;;;;;55.55;33.63;;;19.00;99.90;;;;;;4992895;28;20396;-73
2022/10/16 10:36:10;;;;;;;57.05;32.35;;;19.00;99.90;;;;;;4995290;28;20033;-74
2022/10/16 10:38:44;;;;;;;61.03;33.72;;;19.00;99.90;;;;;;5001123;28;20040;-73
2022/10/16 10:41:19;;;;;;;57.35;34.08;;;19.00;99.90;;;;;;4997579;28;20022;-73
2022/10/16 10:44:03;;;;;;;52.70;32.08;;;19.10;99.90;;;;;;4999320;28;20488;-72
2022/10/16 10:46:38;;;;;;;51.93;32.00;;;19.10;99.90;;;;;;4993135;28;20480;-74
2022/10/16 10:49:24;;;;;;;61.50;34.40;;;19.10;99.90;;;;;;4999508;28;20276;-73
2022/10/16 10:52:02;;;;;;;52.95;31.80;;;19.10;99.90;;;;;;4994667;28;20650;-73
2022/10/16 10:55:00;;;;;;;54.05;31.83;;;19.20;99.90;;;;;;4990844;28;20088;-75
2022/10/16 10:57:38;;;;;;;51.20;32.35;;;19.10;99.90;;;;;;4996986;28;21782;-74
2022/10/16 11:00:32;;;;;;;54.55;32.13;;;19.30;99.90;;;;;;4994239;28;20109;-74
2022/10/16 11:03:33;;;;;;;53.00;30.55;;;19.50;99.90;;;;;;4996703;28;20049;-73
2022/10/16 11:06:31;;;;;;;55.20;32.38;;;19.50;99.90;;;;;;4999136;28;20090;-73
2022/10/16 11:09:10;;;;;;;48.75;28.52;;;19.60;99.90;;;;;;4990605;28;20503;-74
2022/10/16 11:11:45;;;;;;;53.78;31.77;;;19.90;99.90;;;;;;5006810;28;20022;-73
2022/10/16 11:14:22;;;;;;;51.72;31.30;;;20.00;99.90;;;;;;4999330;28;20363;-73
2022/10/16 11:17:02;;;;;;;54.42;32.85;;;20.10;99.90;;;;;;4994974;28;20044;-74
2022/10/16 11:19:40;;;;;;;50.70;29.10;;;20.30;99.90;;;;;;4991732;28;20037;-73
2022/10/16 11:22:18;;;;;;;51.40;29.98;;;20.30;99.90;;;;;;4995589;28;20054;-74
2022/10/16 11:25:02;;;;;;;48.30;29.73;;;20.30;99.90;;;;;;5006484;28;20033;-73
2022/10/16 11:27:35;;;;;;;;;;;20.40;99.90;;;;;;4989976;28;20400;-74
2022/10/16 11:30:06;;;;;;;43.42;27.55;;;20.60;99.90;;;;;;4987708;28;20001;-73
2022/10/16 11:32:42;;;;;;;50.28;28.60;;;20.50;99.90;;;;;;4989341;28;20038;-73
2022/10/16 11:35:30;;;;;;;48.72;30.80;;;20.60;99.90;;;;;;4989087;28;20085;-74
2022/10/16 11:37:58;;;;;;;46.80;28.67;;;20.70;99.90;;;;;;5005126;28;20091;-74
2022/10/16 11:40:30;;;;;;;46.30;27.85;;;20.90;99.90;;;;;;5005545;28;20029;-74
2022/10/16 11:43:04;;;;;;;47.38;26.95;;;21.00;99.90;;;;;;4986970;28;20393;-74
2022/10/16 11:45:35;;;;;;;;;;;21.00;99.30;;;;;;4989159;28;20018;-74
2022/10/16 11:48:36;;;;;;;48.95;27.75;;;21.10;99.70;;;;;;4987295;28;20503;-74
2022/10/16 11:51:20;;;;;;;38.30;22.27;;;21.20;99.20;;;;;;4988928;28;20042;-74
2022/10/16 11:53:50;;;;;;;38.00;19.83;;;21.20;98.10;;;;;;4987858;28;20029;-76
2022/10/16 11:56:19;;;;;;;33.13;20.95;;;21.10;98.00;;;;;;4984544;28;20185;-74
2022/10/16 11:59:00;;;;;;;26.60;18.25;;;21.10;97.80;;;;;;5007324;28;20528;-74
2022/10/16 12:01:30;;;;;;;31.38;21.17;;;21.30;97.90;;;;;;4997282;28;20042;-74
2022/10/16 12:04:10;;;;;;;41.25;26.17;;;21.40;97.30;;;;;;4986639;28;21131;-74
2022/10/16 12:06:40;;;;;;;38.92;24.30;;;21.40;98.20;;;;;;4992002;28;20042;-74
2022/10/16 12:09:30;;;;;;;35.50;22.77;;;21.50;98.50;;;;;;4987078;28;20673;-74
2022/10/16 12:11:56;;;;;;;34.97;22.45;;;21.60;98.40;;;;;;4986842;28;20080;-74
2022/10/16 12:14:36;;;;;;;35.05;23.67;;;21.70;97.50;;;;;;4987077;28;20587;-74
2022/10/16 12:17:22;;;;;;;36.30;22.70;;;21.50;97.90;;;;;;4987103;28;20034;-74
2022/10/16 12:20:19;;;;;;;35.58;21.67;;;21.50;98.00;;;;;;4986271;28;20064;-74
2022/10/16 12:23:00;;;;;;;39.25;22.67;;;21.70;97.90;;;;;;4988500;28;20503;-74
2022/10/16 12:25:28;;;;;;;33.92;21.50;;;21.80;97.90;;;;;;4984290;28;20628;-73
2022/10/16 12:27:58;;;;;;;29.08;17.63;;;21.90;97.70;;;;;;4982876;28;20034;-74
2022/10/16 12:30:25;;;;;;;28.55;17.85;;;21.90;97.10;;;;;;4985077;28;20121;-74
2022/10/16 12:32:57;;;;;;;31.80;18.17;;;21.90;97.80;;;;;;4995515;28;20073;-74
2022/10/16 12:35:30;;;;;;;24.95;17.45;;;21.80;97.70;;;;;;4990730;28;20026;-74
2022/10/16 12:38:07;;;;;;;22.75;13.50;;;21.70;96.50;;;;;;4991043;28;20031;-74
2022/10/16 12:40:36;;;;;;;14.60;9.80;;;21.70;96.20;;;;;;4988735;28;20030;-74
2022/10/16 12:43:20;;;;;;;16.15;10.50;;;21.80;95.00;;;;;;4987345;28;20503;-74
2022/10/16 12:45:46;;;;;;;19.70;11.82;;;21.80;95.80;;;;;;4992587;28;20117;-74
2022/10/16 12:48:21;;;;;;;23.13;14.50;;;21.80;95.80;;;;;;4994097;28;20200;-74